Time;durP1;ratioP1;P1;durP2;ratioP2;P2;SDS_P1;SDS_P2;PMS_P1;PMS_P2;Temp;Humidity;BMP_temperature;BMP_pressure;BME280_temperature;BME280_humidity;BME280_pressure;Samples;Min_cycle;Max_cycle;Signal;HPM_P1;HPM_P2
2022/07/07 00:00:16;;;;;;;;;;;19.00;99.90;;;;;;5017212;28;20360;-76
2022/07/07 00:02:43;;;;;;;;;;;19.00;99.90;;;;;;5023251;28;19920;-76
2022/07/07 00:05:09;;;;;;;;;;;19.00;99.90;;;;;;5027171;28;19920;-75
2022/07/07 00:07:35;;;;;;;;;;;19.00;99.90;;;;;;5020691;28;19917;-76
2022/07/07 00:10:02;;;;;;;;;;;19.00;99.90;;;;;;5017501;28;20450;-75
2022/07/07 00:12:29;;;;;;;;;;;19.00;99.90;;;;;;5022031;28;19924;-76
2022/07/07 00:14:55;;;;;;;;;;;19.00;99.90;;;;;;5006915;28;19917;-75
2022/07/07 00:17:21;;;;;;;;;;;19.00;99.90;;;;;;5024034;28;19916;-75
2022/07/07 00:19:47;;;;;;;;;;;19.00;99.90;;;;;;5017535;28;19919;-75
2022/07/07 00:22:13;;;;;;;;;;;19.00;99.90;;;;;;5021393;28;20372;-76
2022/07/07 00:24:40;;;;;;;;;;;19.00;99.90;;;;;;5022683;28;19913;-76
2022/07/07 00:27:06;;;;;;;;;;;19.00;99.90;;;;;;4988763;28;19916;-75
2022/07/07 00:29:32;;;;;;;;;;;19.00;99.90;;;;;;5020091;28;19917;-76
2022/07/07 00:32:01;;;;;;;;;;;19.00;99.90;;;;;;5022721;28;19916;-76
2022/07/07 00:34:28;;;;;;;;;;;19.00;99.90;;;;;;5023118;28;19919;-76
2022/07/07 00:36:54;;;;;;;;;;;19.00;99.90;;;;;;5021399;28;19917;-76
2022/07/07 00:39:20;;;;;;;;;;;19.00;99.90;;;;;;5020268;28;19928;-76
2022/07/07 00:41:46;;;;;;;;;;;19.00;99.90;;;;;;5023516;28;19913;-76
2022/07/07 00:44:13;;;;;;;;;;;19.00;99.90;;;;;;5006735;28;19916;-76
2022/07/07 00:46:43;;;;;;;;;;;19.00;99.90;;;;;;5025228;28;19928;-76
2022/07/07 00:49:10;;;;;;;;;;;19.00;99.90;;;;;;5021645;28;20718;-76
2022/07/07 00:51:37;;;;;;;;;;;19.00;99.90;;;;;;5004306;28;19924;-76
2022/07/07 00:54:03;;;;;;;;;;;19.00;99.90;;;;;;5022339;28;19924;-76
2022/07/07 00:56:29;;;;;;;;;;;19.00;99.90;;;;;;5023078;28;19925;-76
2022/07/07 00:58:58;;;;;;;;;;;19.00;99.90;;;;;;5005189;28;19919;-76
2022/07/07 01:01:25;;;;;;;;;;;19.00;99.90;;;;;;5001917;28;19909;-76
2022/07/07 01:03:51;;;;;;;;;;;19.00;99.90;;;;;;5019532;28;19912;-76
2022/07/07 01:06:17;;;;;;;;;;;19.00;99.90;;;;;;5020922;28;19905;-75
2022/07/07 01:08:43;;;;;;;;;;;19.00;99.90;;;;;;4988499;28;20383;-76
2022/07/07 01:11:09;;;;;;;;;;;18.90;99.90;;;;;;4990812;28;19908;-76
2022/07/07 01:13:38;;;;;;;;;;;18.90;99.90;;;;;;5022495;28;19916;-76
2022/07/07 01:16:04;;;;;;;;;;;18.80;99.90;;;;;;5021109;28;19913;-76
2022/07/07 01:18:30;;;;;;;;;;;18.70;99.90;;;;;;5037031;28;19915;-79
2022/07/07 01:20:57;;;;;;;;;;;18.40;99.90;;;;;;5020056;28;19915;-80
2022/07/07 01:23:24;;;;;;;;;;;18.20;99.90;;;;;;5019656;28;20355;-78
2022/07/07 01:25:50;;;;;;;;;;;18.10;99.90;;;;;;5020754;28;19916;-78
2022/07/07 01:28:16;;;;;;;;;;;18.00;99.90;;;;;;5008182;28;19923;-78
2022/07/07 01:30:42;;;;;;;;;;;17.90;99.90;;;;;;5008351;28;19912;-78
2022/07/07 01:33:08;;;;;;;;;;;17.90;99.90;;;;;;5021418;28;19920;-77
2022/07/07 01:35:34;;;;;;;;;;;17.90;99.90;;;;;;5020759;28;19931;-78
2022/07/07 01:38:01;;;;;;;;;;;17.80;99.90;;;;;;5022021;28;20588;-78
2022/07/07 01:40:30;;;;;;;;;;;17.80;99.90;;;;;;5019099;28;19913;-78
2022/07/07 01:42:56;;;;;;;;;;;17.90;99.90;;;;;;5022796;28;19947;-79
2022/07/07 01:45:22;;;;;;;;;;;17.90;99.90;;;;;;5021164;28;19917;-78
2022/07/07 01:47:48;;;;;;;;;;;17.90;99.90;;;;;;5006766;28;19916;-78
2022/07/07 01:50:14;;;;;;;;;;;17.90;99.90;;;;;;5016615;28;19936;-78
2022/07/07 01:52:41;;;;;;;;;;;18.00;99.90;;;;;;5020209;28;19916;-78
2022/07/07 01:55:07;;;;;;;;;;;17.90;99.90;;;;;;5021450;28;20376;-78
2022/07/07 01:57:33;;;;;;;;;;;17.90;99.90;;;;;;5022479;28;19920;-78
2022/07/07 02:00:00;;;;;;;;;;;17.90;99.90;;;;;;5022707;28;20390;-78
2022/07/07 02:02:26;;;;;;;;;;;17.90;99.90;;;;;;5026120;28;20277;-79
2022/07/07 02:04:52;;;;;;;;;;;17.90;99.90;;;;;;5024355;28;19920;-78
2022/07/07 02:07:18;;;;;;;;;;;17.90;99.90;;;;;;5026057;28;19935;-78
2022/07/07 02:09:44;;;;;;;;;;;18.00;99.90;;;;;;5024038;28;19916;-78
2022/07/07 02:12:10;;;;;;;;;;;18.00;99.90;;;;;;5008357;28;19917;-78
2022/07/07 02:14:37;;;;;;;;;;;18.00;99.90;;;;;;5024946;28;19916;-79
2022/07/07 02:17:04;;;;;;;;;;;18.00;99.90;;;;;;5024366;28;19925;-78
2022/07/07 02:19:30;;;;;;;;;;;18.00;99.90;;;;;;4989679;28;19939;-79
2022/07/07 02:21:56;;;;;;;;;;;18.10;99.90;;;;;;5023701;28;19917;-79
2022/07/07 02:24:22;;;;;;;;;;;18.10;99.90;;;;;;5025392;28;19917;-79
2022/07/07 02:26:48;;;;;;;;;;;18.10;99.90;;;;;;5024277;28;19917;-78
2022/07/07 02:29:15;;;;;;;;;;;18.10;99.90;;;;;;5025577;28;20557;-79
2022/07/07 02:31:41;;;;;;;;;;;18.00;99.90;;;;;;5023222;28;19931;-79
2022/07/07 02:34:07;;;;;;;;;;;17.90;99.90;;;;;;5026562;28;20288;-78
2022/07/07 02:36:34;;;;;;;;;;;17.80;99.90;;;;;;5008527;28;19928;-79
2022/07/07 02:39:00;;;;;;;;;;;17.60;99.90;;;;;;5023581;28;19913;-74
2022/07/07 02:41:26;;;;;;;;;;;17.40;99.90;;;;;;5020874;28;19935;-75
2022/07/07 02:43:52;;;;;;;;;;;17.30;99.90;;;;;;5024194;28;19912;-74
2022/07/07 02:46:18;;;;;;;;;;;17.20;99.90;;;;;;5024676;28;19944;-74
2022/07/07 02:48:44;;;;;;;;;;;17.10;99.90;;;;;;5022975;28;19924;-74
2022/07/07 02:51:10;;;;;;;;;;;17.00;99.90;;;;;;5005242;28;19917;-74
2022/07/07 02:53:37;;;;;;;;;;;16.90;99.90;;;;;;5027027;28;19908;-75
2022/07/07 02:56:03;;;;;;;;;;;16.80;99.90;;;;;;5009078;28;19916;-74
2022/07/07 02:58:29;;;;;;;;;;;16.80;99.90;;;;;;5024014;28;21581;-75
2022/07/07 03:00:56;;;;;;;;;;;16.70;99.90;;;;;;5003740;28;20938;-74
2022/07/07 03:03:22;;;;;;;;;;;16.70;99.90;;;;;;5022569;28;19913;-78
2022/07/07 03:05:48;;;;;;;;;;;16.60;99.90;;;;;;5024399;28;19908;-78
2022/07/07 03:08:14;;;;;;;;;;;16.60;99.90;;;;;;5027841;28;20995;-79
2022/07/07 03:10:41;;;;;;;;;;;16.60;99.90;;;;;;5022624;28;19917;-79
2022/07/07 03:13:07;;;;;;;;;;;16.60;99.90;;;;;;5025297;28;19913;-79
2022/07/07 03:15:33;;;;;;;;;;;16.60;99.90;;;;;;5008162;28;19955;-78
2022/07/07 03:18:00;;;;;;;;;;;16.60;99.90;;;;;;5024777;28;20979;-79
2022/07/07 03:20:26;;;;;;;;;;;16.70;99.90;;;;;;5022349;28;19940;-79
2022/07/07 03:22:52;;;;;;;;;;;16.70;99.90;;;;;;5025886;28;19913;-79
2022/07/07 03:25:18;;;;;;;;;;;16.70;99.90;;;;;;5025689;28;19924;-79
2022/07/07 03:27:45;;;;;;;;;;;16.70;99.90;;;;;;5026451;28;19931;-79
2022/07/07 03:30:12;;;;;;;;;;;16.70;99.90;;;;;;5004486;28;20437;-79
2022/07/07 03:32:38;;;;;;;;;;;16.70;99.90;;;;;;5023715;28;19912;-79
2022/07/07 03:35:04;;;;;;;;;;;16.60;99.90;;;;;;5024814;28;19919;-74
2022/07/07 03:37:32;;;;;;;;;;;16.70;99.90;;;;;;5007808;28;19912;-74
2022/07/07 03:40:01;;;;;;;;;;;16.70;99.90;;;;;;5019709;28;19917;-74
2022/07/07 03:42:29;;;;;;;;;;;16.70;99.90;;;;;;5012275;28;19929;-74
2022/07/07 03:44:55;;;;;;;;;;;16.70;99.90;;;;;;5024860;28;19917;-74
2022/07/07 03:47:21;;;;;;;;;;;16.70;99.90;;;;;;5023184;28;19928;-75
2022/07/07 03:49:47;;;;;;;;;;;16.70;99.90;;;;;;5002876;28;19924;-75
2022/07/07 03:52:14;;;;;;;;;;;16.70;99.90;;;;;;5022348;28;19924;-74
2022/07/07 03:54:40;;;;;;;;;;;16.70;99.90;;;;;;4994742;28;19939;-75
2022/07/07 03:57:07;;;;;;;;;;;16.70;99.90;;;;;;5005313;28;19913;-75
2022/07/07 03:59:33;;;;;;;;;;;16.70;99.90;;;;;;5021200;28;20395;-74
2022/07/07 04:01:59;;;;;;;;;;;16.80;99.90;;;;;;5022057;28;19917;-75
2022/07/07 04:04:26;;;;;;;;;;;16.70;99.90;;;;;;5022925;28;20360;-74
2022/07/07 04:06:52;;;;;;;;;;;16.70;99.90;;;;;;5023466;28;19921;-75
2022/07/07 04:09:18;;;;;;;;;;;16.80;99.90;;;;;;5020134;28;19923;-74
2022/07/07 04:11:44;;;;;;;;;;;16.80;99.90;;;;;;5020622;28;19917;-74
2022/07/07 04:14:10;;;;;;;;;;;16.90;99.90;;;;;;5023312;28;19916;-74
2022/07/07 04:16:36;;;;;;;;;;;16.80;99.90;;;;;;5023272;28;20355;-75
2022/07/07 04:19:03;;;;;;;;;;;16.90;99.90;;;;;;5022420;28;21046;-74
2022/07/07 04:21:29;;;;;;;;;;;17.00;99.90;;;;;;5019411;28;19917;-74
2022/07/07 04:23:55;;;;;;;;;;;17.00;99.90;;;;;;5027530;28;19924;-79
2022/07/07 04:26:21;;;;;;;;;;;17.00;99.90;;;;;;5024448;28;21374;-79
2022/07/07 04:28:47;;;;;;;;;;;17.00;99.90;;;;;;5023410;28;20528;-78
2022/07/07 04:31:14;;;;;;;;;;;16.90;99.90;;;;;;5019077;28;19942;-79
2022/07/07 04:33:40;;;;;;;;;;;16.80;99.90;;;;;;5007917;28;19923;-78
2022/07/07 04:36:06;;;;;;;;;;;16.70;99.90;;;;;;5024967;28;19921;-78
2022/07/07 04:38:32;;;;;;;;;;;16.70;99.90;;;;;;5006722;28;20397;-78
2022/07/07 04:40:59;;;;;;;;;;;16.60;99.90;;;;;;5020155;28;19913;-79
2022/07/07 04:43:25;;;;;;;;;;;16.50;99.90;;;;;;5024013;28;19924;-79
2022/07/07 04:45:51;;;;;;;;;;;16.50;99.90;;;;;;5024547;28;19924;-80
2022/07/07 04:48:17;;;;;;;;;;;16.40;99.90;;;;;;5022752;28;19917;-79
2022/07/07 04:50:43;;;;;;;;;;;16.40;99.90;;;;;;5004272;28;20295;-78
2022/07/07 04:53:09;;;;;;;;;;;16.40;99.90;;;;;;5023011;28;19924;-79
2022/07/07 04:55:36;;;;;;;;;;;16.30;99.90;;;;;;5023440;28;19916;-78
2022/07/07 04:58:02;;;;;;;;;;;16.30;99.90;;;;;;5039650;28;19916;-79
2022/07/07 05:00:28;;;;;;;;;;;16.30;99.90;;;;;;5021694;28;20279;-79
2022/07/07 05:02:54;;;;;;;;;;;16.30;99.90;;;;;;5023612;28;20368;-84
2022/07/07 05:05:20;;;;;;;;;;;16.30;99.90;;;;;;5024404;28;19916;-79
2022/07/07 05:07:46;;;;;;;;;;;16.30;99.90;;;;;;5022792;28;19924;-83
2022/07/07 05:10:13;;;;;;;;;;;16.30;99.90;;;;;;4999880;28;20403;-79
2022/07/07 05:12:39;;;;;;;;;;;16.40;99.90;;;;;;5018203;28;19921;-79
2022/07/07 05:15:05;;;;;;;;;;;16.50;99.90;;;;;;5020519;28;20403;-79
2022/07/07 05:17:31;;;;;;;;;;;16.60;99.90;;;;;;5018017;28;19920;-79
2022/07/07 05:19:58;;;;;;;;;;;16.70;99.90;;;;;;5015084;28;19921;-80
2022/07/07 05:22:24;;;;;;;;;;;16.80;99.90;;;;;;5016901;28;20372;-78
2022/07/07 05:24:50;;;;;;;;;;;16.80;99.90;;;;;;5020268;28;19917;-74
2022/07/07 05:27:16;;;;;;;;;;;16.70;99.90;;;;;;5003931;28;19998;-74
2022/07/07 05:29:43;;;;;;;;;;;16.60;99.90;;;;;;5000381;28;19923;-75
2022/07/07 05:32:09;;;;;;;;;;;16.60;99.90;;;;;;5001869;28;19984;-75
2022/07/07 05:34:35;;;;;;;;;;;16.50;99.90;;;;;;5022559;28;19916;-75
2022/07/07 05:37:01;;;;;;;;;;;16.40;99.90;;;;;;5024504;28;19917;-75
2022/07/07 05:39:28;;;;;;;;;;;16.30;99.90;;;;;;5023509;28;19920;-75
2022/07/07 05:41:54;;;;;;;;;;;16.30;99.90;;;;;;5021042;28;20023;-75
2022/07/07 05:44:21;;;;;;;;;;;16.30;99.90;;;;;;5024222;28;21462;-76
2022/07/07 05:46:47;;;;;;;;;;;16.40;99.90;;;;;;5008560;28;19928;-75
2022/07/07 05:49:13;;;;;;;;;;;16.60;99.90;;;;;;5020967;28;19912;-75
2022/07/07 05:51:39;;;;;;;;;;;16.60;99.90;;;;;;5020638;28;19920;-75
2022/07/07 05:54:05;;;;;;;;;;;16.70;99.90;;;;;;5025835;28;19916;-75
2022/07/07 05:56:31;;;;;;;;;;;16.70;99.90;;;;;;5003426;28;19931;-75
2022/07/07 05:58:57;;;;;;;;;;;16.60;99.90;;;;;;5021680;28;20485;-75
2022/07/07 06:01:24;;;;;;;;;;;16.60;99.90;;;;;;5015913;28;21400;-76
2022/07/07 06:03:50;;;;;;;;;;;16.60;99.90;;;;;;5018431;28;19917;-76
2022/07/07 06:06:17;;;;;;;;;;;16.60;99.90;;;;;;5018631;28;19924;-75
2022/07/07 06:08:43;;;;;;;;;;;16.50;99.90;;;;;;5023725;28;19917;-75
2022/07/07 06:11:09;;;;;;;;;;;16.60;99.90;;;;;;5019037;28;19917;-75
2022/07/07 06:13:35;;;;;;;;;;;16.60;99.90;;;;;;5024778;28;19917;-75
2022/07/07 06:16:01;;;;;;;;;;;16.70;99.90;;;;;;5025098;28;20595;-75
2022/07/07 06:18:27;;;;;;;;;;;16.70;99.90;;;;;;5023392;28;20999;-75
2022/07/07 06:20:54;;;;;;;;;;;16.70;99.90;;;;;;5002792;28;19923;-75
2022/07/07 06:23:20;;;;;;;;;;;16.70;99.90;;;;;;5022749;28;20000;-75
2022/07/07 06:25:46;;;;;;;;;;;16.60;99.90;;;;;;5024107;28;19913;-75
2022/07/07 06:28:12;;;;;;;;;;;16.60;99.90;;;;;;5024174;28;20276;-77
2022/07/07 06:30:39;;;;;;;;;;;16.40;99.90;;;;;;5002807;28;19919;-77
2022/07/07 06:33:05;;;;;;;;;;;16.40;99.90;;;;;;5007924;28;19919;-76
2022/07/07 06:35:31;;;;;;;;;;;16.30;99.90;;;;;;5023279;28;21167;-76
2022/07/07 06:37:58;;;;;;;;;;;16.30;99.90;;;;;;5040279;28;19916;-75
2022/07/07 06:40:24;;;;;;;;;;;16.30;99.90;;;;;;5022716;28;19912;-75
2022/07/07 06:42:50;;;;;;;;;;;16.30;99.90;;;;;;5023983;28;20281;-75
2022/07/07 06:45:23;;;;;;;;;;;16.40;99.90;;;;;;5024832;28;19923;-76
2022/07/07 06:47:50;;;;;;;;;;;16.30;99.90;;;;;;5013892;28;19928;-76
2022/07/07 06:50:17;;;;;;;;;;;16.30;99.90;;;;;;5004304;28;19916;-76
2022/07/07 06:52:43;;;;;;;;;;;16.40;99.90;;;;;;5022659;28;19920;-76
2022/07/07 06:55:09;;;;;;;;;;;16.60;99.90;;;;;;5022057;28;19916;-76
2022/07/07 06:57:36;;;;;;;;;;;16.60;99.90;;;;;;5006442;28;19993;-76
2022/07/07 07:00:02;;;;;;;;;;;16.60;99.90;;;;;;5005207;28;19921;-76
2022/07/07 07:02:28;;;;;;;;;;;16.80;99.90;;;;;;5006467;28;19914;-76
2022/07/07 07:04:54;;;;;;;;;;;17.00;99.90;;;;;;5022730;28;21098;-76
2022/07/07 07:07:21;;;;;;;;;;;17.10;99.90;;;;;;5022757;28;21242;-76
2022/07/07 07:09:47;;;;;;;;;;;17.20;99.90;;;;;;5021152;28;19916;-76
2022/07/07 07:12:13;;;;;;;;;;;17.30;99.90;;;;;;4978526;28;19923;-76
2022/07/07 07:14:39;;;;;;;;;;;17.40;99.90;;;;;;5024324;28;19935;-76
2022/07/07 07:17:05;;;;;;;;;;;17.50;99.90;;;;;;5006494;28;19916;-76
2022/07/07 07:19:31;;;;;;;;;;;17.60;99.90;;;;;;5020861;28;19909;-76
2022/07/07 07:21:58;;;;;;;;;;;17.70;99.90;;;;;;5005306;28;19917;-76
2022/07/07 07:24:24;;;;;;;;;;;17.80;99.90;;;;;;5007284;28;19916;-76
2022/07/07 07:26:50;;;;;;;;;;;18.00;99.90;;;;;;5023575;28;20376;-75
2022/07/07 07:29:16;;;;;;;;;;;18.00;99.90;;;;;;5024079;28;19908;-76
2022/07/07 07:31:43;;;;;;;;;;;17.90;99.90;;;;;;5023363;28;19911;-76
2022/07/07 07:34:09;;;;;;;;;;;17.70;99.90;;;;;;5023217;28;19919;-76
2022/07/07 07:36:35;;;;;;;;;;;17.60;99.90;;;;;;4989647;28;19909;-76
2022/07/07 07:39:04;;;;;;;;;;;17.50;99.90;;;;;;5022678;28;19909;-76
2022/07/07 07:41:30;;;;;;;;;;;17.50;99.90;;;;;;5020603;28;20388;-75
2022/07/07 07:43:56;;;;;;;;;;;17.60;99.90;;;;;;5021579;28;21251;-75
2022/07/07 07:46:22;;;;;;;;;;;17.80;99.90;;;;;;5021988;28;20273;-75
2022/07/07 07:48:48;;;;;;;;;;;17.80;99.90;;;;;;5020945;28;20283;-76
2022/07/07 07:51:15;;;;;;;;;;;17.70;99.90;;;;;;5017462;28;19916;-75
2022/07/07 07:53:41;;;;;;;;;;;17.70;99.90;;;;;;5006379;28;20368;-76
2022/07/07 07:56:07;;;;;;;;;;;17.70;99.90;;;;;;5022113;28;20008;-76
2022/07/07 07:58:33;;;;;;;;;;;17.80;99.90;;;;;;5022945;28;19918;-75
2022/07/07 08:01:02;;;;;;;;;;;18.00;99.90;;;;;;5008597;28;19916;-76
2022/07/07 08:03:28;;;;;;;;;;;18.20;99.90;;;;;;5023478;28;19912;-76
2022/07/07 08:05:55;;;;;;;;;;;18.50;99.90;;;;;;5022680;28;19909;-75
2022/07/07 08:08:21;;;;;;;;;;;18.70;99.90;;;;;;4991712;28;19935;-76
2022/07/07 08:10:47;;;;;;;;;;;18.70;99.90;;;;;;5019032;28;19920;-75
2022/07/07 08:13:13;;;;;;;;;;;18.80;99.90;;;;;;5010458;28;19913;-75
2022/07/07 08:15:40;;;;;;;;;;;19.00;99.90;;;;;;5024036;28;19916;-76
2022/07/07 08:18:06;;;;;;;;;;;19.20;99.90;;;;;;5023247;28;19920;-75
2022/07/07 08:20:32;;;;;;;;;;;19.40;99.90;;;;;;5020242;28;20301;-75
2022/07/07 08:22:58;;;;;;;;;;;19.10;99.90;;;;;;5022112;28;20390;-79
2022/07/07 08:25:24;;;;;;;;;;;18.90;99.90;;;;;;5024248;28;20375;-80
2022/07/07 08:27:51;;;;;;;;;;;18.60;99.90;;;;;;5022504;28;19928;-80
2022/07/07 08:30:17;;;;;;;;;;;18.50;99.90;;;;;;5004414;28;19912;-80
2022/07/07 08:32:45;;;;;;;;;;;18.50;99.90;;;;;;5007297;28;19917;-80
2022/07/07 08:35:12;;;;;;;;;;;18.50;99.90;;;;;;4991410;28;19909;-80
2022/07/07 08:37:38;;;;;;;;;;;18.80;99.90;;;;;;5024225;28;19920;-80
2022/07/07 08:40:05;;;;;;;;;;;19.20;99.90;;;;;;5002699;28;19916;-80
2022/07/07 08:42:31;;;;;;;;;;;19.50;99.90;;;;;;5010991;28;19920;-80
2022/07/07 08:44:57;;;;;;;;;;;19.60;99.90;;;;;;5022369;28;19913;-80
2022/07/07 08:47:24;;;;;;;;;;;19.40;99.90;;;;;;5022841;28;19929;-80
2022/07/07 08:49:51;;;;;;;;;;;19.20;99.90;;;;;;5019104;28;20271;-80
2022/07/07 08:52:18;;;;;;;;;;;18.90;99.90;;;;;;5023223;28;19916;-79
2022/07/07 08:54:45;;;;;;;;;;;19.00;99.90;;;;;;5023644;28;19913;-80
2022/07/07 08:57:11;;;;;;;;;;;19.10;99.90;;;;;;5023435;28;20023;-80
2022/07/07 08:59:37;;;;;;;;;;;19.30;99.90;;;;;;5019942;28;20379;-80
2022/07/07 09:02:04;;;;;;;;;;;19.40;99.90;;;;;;5022643;28;19916;-80
2022/07/07 09:04:30;;;;;;;;;;;19.70;99.90;;;;;;5022080;28;19913;-80
2022/07/07 09:06:57;;;;;;;;;;;19.90;99.90;;;;;;5021958;28;19925;-79
2022/07/07 09:09:33;;;;;;;;;;;19.90;99.90;;;;;;5020206;28;20288;-79
2022/07/07 09:11:59;;;;;;;;;;;19.70;99.90;;;;;;5005659;28;19912;-79
2022/07/07 09:14:33;;;;;;;;;;;19.40;99.90;;;;;;5022834;28;19916;-80
2022/07/07 09:16:59;;;;;;;;;;;19.30;99.90;;;;;;5021690;28;19913;-81
2022/07/07 09:19:25;;;;;;;;;;;19.20;99.90;;;;;;5020556;28;20291;-80
2022/07/07 09:21:51;;;;;;;;;;;19.20;99.90;;;;;;5022290;28;19923;-80
2022/07/07 09:24:18;;;;;;;;;;;19.40;99.90;;;;;;5023231;28;19944;-80
2022/07/07 09:26:46;;;;;;;;;;;19.60;99.90;;;;;;5012077;28;19916;-79
2022/07/07 09:29:18;;;;;;;;;;;19.80;99.90;;;;;;5021372;28;20319;-79
2022/07/07 09:31:58;;;;;;;;;;;19.90;99.90;;;;;;5021543;28;19913;-75
2022/07/07 09:34:27;;;;;;;;;;;20.10;99.90;;;;;;5022012;28;19917;-75
2022/07/07 09:39:41;;;;;;;;;;;20.70;99.90;;;;;;5018586;28;19919;-75
2022/07/07 09:42:17;;;;;;;;;;;21.00;99.90;;;;;;5018339;28;19913;-75
2022/07/07 09:44:43;;;;;;;;;;;20.90;99.90;;;;;;5021363;28;20557;-74
2022/07/07 09:47:09;;;;;;;;;;;20.60;99.90;;;;;;5019224;28;19924;-75
2022/07/07 09:49:43;;;;;;;;;;;20.20;99.90;;;;;;5018523;28;19931;-75
2022/07/07 09:52:19;;;;;;;;;;;19.90;99.90;;;;;;5008619;28;20618;-76
2022/07/07 09:54:49;;;;;;;;;;;19.80;99.90;;;;;;5021396;28;19924;-75
2022/07/07 09:57:18;;;;;;;;;;;19.80;99.90;;;;;;5022640;28;19931;-75
2022/07/07 09:59:45;;;;;;;;;;;20.00;99.90;;;;;;5018658;28;19912;-79
2022/07/07 10:02:16;;;;;;;;;;;20.40;99.90;;;;;;5022223;28;19908;-79
2022/07/07 10:04:43;;;;;;;;;;;20.60;99.90;;;;;;5016513;28;20360;-79
2022/07/07 10:07:09;;;;;;;;;;;20.60;99.90;;;;;;4988459;28;20413;-80
2022/07/07 10:09:37;;;;;;;;;;;20.50;99.90;;;;;;5018786;28;19915;-80
2022/07/07 10:12:03;;;;;;;;;;;20.40;99.90;;;;;;5022141;28;20488;-79
2022/07/07 10:14:39;;;;;;;;;;;20.30;99.90;;;;;;5022286;28;19932;-78
2022/07/07 10:17:06;;;;;;;;;;;20.30;99.90;;;;;;5024666;28;19922;-79
2022/07/07 10:19:32;;;;;;;;;;;20.50;99.90;;;;;;5021098;28;19928;-79
2022/07/07 10:21:59;;;;;;;;;;;20.60;99.90;;;;;;5008492;28;20446;-79
2022/07/07 10:24:27;;;;;;;;;;;20.90;99.90;;;;;;5008936;28;19924;-79
2022/07/07 10:26:55;;;;;;;;;;;21.20;99.90;;;;;;5025156;28;19917;-80
2022/07/07 10:29:44;;;;;;;;;;;21.50;99.90;;;;;;5007292;28;20075;-80
2022/07/07 10:32:15;;;;;;;;;;;21.60;99.90;;;;;;5020509;28;19912;-80
2022/07/07 10:34:49;;;;;;;;;;;21.50;99.90;;;;;;5026529;28;19906;-80
2022/07/07 10:37:15;;;;;;;;;;;21.40;99.90;;;;;;5025816;28;20482;-80
2022/07/07 10:39:43;;;;;;;;;;;21.30;99.90;;;;;;5022077;28;19913;-81
2022/07/07 10:42:18;;;;;;;;;;;21.40;99.90;;;;;;5024672;28;19924;-80
2022/07/07 10:44:51;;;;;;;;;;;21.80;99.90;;;;;;5024442;28;19913;-80
2022/07/07 10:47:18;;;;;;;;;;;21.80;99.90;;;;;;5025915;28;19924;-80
2022/07/07 10:49:45;;;;;;;;;;;21.60;99.90;;;;;;5023816;28;19917;-80
2022/07/07 10:52:11;;;;;;;;;;;21.20;99.90;;;;;;5021974;28;19927;-79
2022/07/07 10:54:39;;;;;;;;;;;20.90;99.90;;;;;;5026446;28;19935;-80
2022/07/07 10:57:05;;;;;;;;;;;20.80;99.90;;;;;;5026242;28;19913;-80
2022/07/07 10:59:51;;;;;;;;;;;20.80;99.90;;;;;;5023793;28;20359;-80
2022/07/07 11:02:30;;;;;;;;;;;21.00;99.90;;;;;;5025244;28;19912;-83
2022/07/07 11:05:00;;;;;;;;;;;21.60;99.90;;;;;;5025002;28;19913;-81
2022/07/07 11:07:28;;;;;;;;;;;22.40;99.90;;;;;;5022943;28;20384;-80
2022/07/07 11:09:54;;;;;;;;;;;23.00;99.90;;;;;;5018809;28;19919;-79
2022/07/07 11:12:33;;;;;;;;;;;23.40;99.90;;;;;;5021765;28;21661;-78
2022/07/07 11:15:14;;;;;;;;;;;23.30;99.90;;;;;;5039162;28;19916;-79
2022/07/07 11:17:49;;;;;;;;;;;23.00;99.90;;;;;;5024572;28;19928;-79
2022/07/07 11:20:17;;;;;;;;;;;22.50;99.90;;;;;;5020514;28;19920;-78
2022/07/07 11:23:05;;;;;;;;;;;21.80;99.90;;;;;;5004544;28;19959;-78
2022/07/07 11:25:32;;;;;;;;;;;21.10;99.90;;;;;;5023330;28;19936;-78
2022/07/07 11:27:58;;;;;;;;;;;20.70;99.90;;;;;;5024325;28;20330;-78
2022/07/07 11:30:24;;;;;;;;;;;20.90;99.90;;;;;;5018839;28;19931;-77
2022/07/07 11:32:51;;;;;;;;;;;21.30;99.90;;;;;;5026162;28;19917;-81
2022/07/07 11:35:17;;;;;;;;;;;22.00;99.90;;;;;;5026331;28;19928;-81
2022/07/07 11:37:44;;;;;;;;;;;22.50;99.90;;;;;;5026774;28;19927;-83
2022/07/07 11:40:14;;;;;;;;;;;22.80;99.90;;;;;;5021386;28;19910;-83
2022/07/07 11:42:41;;;;;;;;;;;22.70;99.90;;;;;;5023183;28;19916;-79
2022/07/07 11:45:23;;;;;;;;;;;22.60;99.90;;;;;;5021980;28;19920;-80
2022/07/07 11:47:50;;;;;;;;;;;22.80;99.90;;;;;;5025550;28;19916;-80
2022/07/07 11:50:17;;;;;;;;;;;23.00;99.90;;;;;;5022534;28;20367;-80
2022/07/07 11:52:50;;;;;;;;;;;23.10;99.90;;;;;;5024126;28;20377;-80
2022/07/07 11:55:18;;;;;;;;;;;23.30;99.90;;;;;;5023163;28;19924;-75
2022/07/07 11:57:48;;;;;;;;;;;23.20;99.90;;;;;;5024134;28;19935;-76
2022/07/07 12:00:19;;;;;;;;;;;22.80;99.90;;;;;;5017929;28;19916;-80
2022/07/07 12:02:47;;;;;;;;;;;22.20;99.90;;;;;;5020657;28;19940;-80
2022/07/07 12:05:17;;;;;;;;;;;21.80;99.90;;;;;;5022797;28;19916;-80
2022/07/07 12:07:51;;;;;;;;;;;22.20;99.90;;;;;;5022296;28;19928;-79
2022/07/07 12:10:22;;;;;;;;;;;22.50;99.90;;;;;;5018054;28;19924;-79
2022/07/07 12:12:57;;;;;;;;;;;22.60;99.90;;;;;;5022860;28;19909;-79
2022/07/07 12:15:28;;;;;;;;;;;22.80;99.90;;;;;;5022940;28;19912;-79
2022/07/07 12:17:54;;;;;;;;;;;23.40;99.90;;;;;;5005746;28;20399;-78
2022/07/07 12:20:20;;;;;;;;;;;23.90;99.90;;;;;;5020150;28;20388;-79
2022/07/07 12:22:52;;;;;;;;;;;23.70;99.90;;;;;;5022678;28;19913;-79
2022/07/07 12:25:18;;;;;;;;;;;23.30;99.90;;;;;;5025192;28;20363;-79
2022/07/07 12:27:59;;;;;;;;;;;22.80;99.90;;;;;;5022769;28;19924;-79
2022/07/07 12:30:33;;;;;;;;;;;22.20;99.90;;;;;;5017103;28;19912;-78
2022/07/07 12:33:00;;;;;;;;;;;21.90;99.90;;;;;;5021591;28;19919;-78
2022/07/07 12:35:26;;;;;;;;;;;21.80;99.90;;;;;;5023602;28;20351;-79
2022/07/07 12:37:53;;;;;;;;;;;21.90;99.90;;;;;;5025012;28;19917;-78
2022/07/07 12:40:19;;;;;;;;;;;22.30;99.90;;;;;;5020011;28;19924;-79
2022/07/07 12:42:45;;;;;;;;;;;22.80;99.90;;;;;;5023210;28;19916;-78
2022/07/07 12:45:12;;;;;;;;;;;22.90;99.90;;;;;;5006261;28;19913;-78
2022/07/07 12:47:48;;;;;;;;;;;23.00;99.90;;;;;;5022890;28;20265;-78
2022/07/07 12:50:15;;;;;;;;;;;23.40;99.90;;;;;;5019409;28;19927;-79
2022/07/07 12:52:52;;;;;;;;;;;23.70;99.90;;;;;;5024293;28;20390;-78
2022/07/07 12:55:18;;;;;;;;;;;24.10;99.90;;;;;;5026232;28;19912;-78
2022/07/07 12:57:44;;;;;;;;;;;24.30;99.80;;;;;;5024614;28;19921;-78
2022/07/07 13:00:22;;;;;;;;;;;24.20;99.00;;;;;;5019285;28;19920;-79
2022/07/07 13:02:48;;;;;;;;;;;23.80;98.20;;;;;;5024204;28;19904;-78
2022/07/07 13:05:14;;;;;;;;;;;23.60;98.60;;;;;;5023588;28;20501;-78
2022/07/07 13:07:40;;;;;;;;;;;23.90;98.30;;;;;;5006906;28;19931;-79
2022/07/07 13:10:07;;;;;;;;;;;24.10;97.60;;;;;;5005368;28;19928;-79
2022/07/07 13:12:33;;;;;;;;;;;24.20;96.00;;;;;;5022036;28;19943;-80
2022/07/07 13:14:59;;;;;;;;;;;24.40;95.70;;;;;;5006627;28;19924;-80
2022/07/07 13:17:25;;;;;;;;;;;24.90;94.70;;;;;;5024177;28;19920;-80
2022/07/07 13:19:51;;;;;;;;;;;25.10;93.80;;;;;;5022519;28;20399;-80
2022/07/07 13:22:18;;;;;;;;;;;25.40;93.20;;;;;;5022611;28;19920;-80
2022/07/07 13:24:44;;;;;;;;;;;25.40;92.10;;;;;;5023582;28;20376;-80
2022/07/07 13:27:10;;;;;;;;;;;25.40;92.20;;;;;;5022077;28;19909;-81
2022/07/07 13:29:36;;;;;;;;;;;25.70;91.30;;;;;;5021361;28;19924;-80
2022/07/07 13:32:02;;;;;;;;;;;26.10;90.50;;;;;;5020910;28;19913;-80
2022/07/07 13:34:29;;;;;;;;;;;26.20;89.00;;;;;;5024017;28;20375;-80
2022/07/07 13:36:55;;;;;;;;;;;26.40;88.10;;;;;;5025254;28;19912;-80
2022/07/07 13:39:21;;;;;;;;;;;26.30;87.20;;;;;;5020526;28;19908;-81
2022/07/07 13:41:48;;;;;;;;;;;26.50;84.10;;;;;;5022048;28;19917;-80
2022/07/07 13:44:14;;;;;;;;;;;27.20;81.40;;;;;;5006070;28;19915;-80
2022/07/07 13:46:41;;;;;;;;;;;27.10;81.00;;;;;;5021002;28;19921;-80
2022/07/07 13:49:07;;;;;;;;;;;26.50;80.50;;;;;;5005819;28;19921;-80
2022/07/07 13:51:33;;;;;;;;;;;25.60;82.30;;;;;;5017480;28;19909;-79
2022/07/07 13:53:59;;;;;;;;;;;24.70;83.50;;;;;;5004552;28;19917;-75
2022/07/07 13:56:25;;;;;;;;;;;24.20;85.60;;;;;;5026403;28;19923;-75
2022/07/07 13:58:51;;;;;;;;;;;23.90;86.30;;;;;;5011433;28;21132;-75
2022/07/07 14:01:18;;;;;;;;;;;23.60;87.80;;;;;;5020611;28;20526;-75
2022/07/07 14:03:44;;;;;;;;;;;23.40;88.80;;;;;;5008194;28;19913;-74
2022/07/07 14:06:10;;;;;;;;;;;23.10;88.80;;;;;;4991891;28;19917;-74
2022/07/07 14:08:36;;;;;;;;;;;23.00;89.50;;;;;;5004243;28;19924;-74
2022/07/07 14:11:03;;;;;;;;;;;23.00;89.60;;;;;;5019150;28;19924;-76
2022/07/07 14:13:29;;;;;;;;;;;23.30;88.70;;;;;;5023583;28;19927;-76
2022/07/07 14:15:55;;;;;;;;;;;23.30;86.70;;;;;;5026482;28;19915;-76
2022/07/07 14:18:21;;;;;;;;;;;23.00;86.90;;;;;;5008631;28;20298;-76